createdAt,value
2019-05-17T00:01:27.050Z,17.69
2019-05-17T00:03:59.572Z,17.17
2019-05-17T00:06:32.554Z,16.69
2019-05-17T00:09:07.097Z,18.50
2019-05-17T00:11:40.078Z,21.27
2019-05-17T00:14:12.752Z,20.80
2019-05-17T00:16:46.955Z,19.42
2019-05-17T00:19:21.998Z,18.36
2019-05-17T00:21:56.676Z,17.64
2019-05-17T00:24:29.193Z,17.02
2019-05-17T00:27:01.795Z,16.50
2019-05-17T00:29:37.011Z,18.11
2019-05-17T00:32:09.073Z,20.86
2019-05-17T00:34:42.270Z,20.50
2019-05-17T00:37:17.183Z,19.16
2019-05-17T00:39:49.372Z,18.11
2019-05-17T00:42:22.048Z,17.41
2019-05-17T00:44:56.528Z,16.85
2019-05-17T00:47:29.253Z,16.37
2019-05-17T00:50:03.262Z,18.09
2019-05-17T00:52:36.910Z,20.92
2019-05-17T00:55:10.977Z,20.62
2019-05-17T00:57:43.767Z,19.30
2019-05-17T01:00:17.563Z,18.22
2019-05-17T01:02:50.256Z,17.50
2019-05-17T01:05:22.917Z,16.95
2019-05-17T01:07:57.252Z,16.47
2019-05-17T01:10:29.404Z,18.00
2019-05-17T01:13:02.079Z,20.85
2019-05-17T01:15:36.839Z,20.56
2019-05-17T01:18:10.824Z,19.18
2019-05-17T01:20:44.124Z,18.12
2019-05-17T01:23:16.803Z,17.43
2019-05-17T01:25:49.541Z,16.89
2019-05-17T01:28:21.771Z,16.44
2019-05-17T01:30:56.833Z,18.14
2019-05-17T01:33:29.262Z,20.93
2019-05-17T01:36:03.568Z,20.61
2019-05-17T01:38:37.779Z,19.22
2019-05-17T01:41:10.460Z,18.14
2019-05-17T01:43:43.198Z,17.43
2019-05-17T01:46:17.174Z,16.85
2019-05-17T01:48:50.144Z,16.36
2019-05-17T01:51:22.433Z,18.12
2019-05-17T01:53:57.213Z,20.92
2019-05-17T01:56:29.408Z,20.61
2019-05-17T01:59:02.403Z,19.25
2019-05-17T02:01:37.126Z,18.24
2019-05-17T02:04:09.301Z,17.48
2019-05-17T02:06:41.977Z,16.92
2019-05-17T02:09:24.975Z,16.45
2019-05-17T02:11:48.672Z,18.26
2019-05-17T02:14:21.447Z,21.02
2019-05-17T02:16:54.529Z,20.72
2019-05-17T02:19:27.427Z,19.35
2019-05-17T02:22:00.200Z,18.28
2019-05-17T02:24:32.887Z,17.55
2019-05-17T02:27:05.756Z,17.00
2019-05-17T02:29:38.853Z,18.43
2019-05-17T02:32:12.964Z,21.21
2019-05-17T02:34:47.083Z,20.86
2019-05-17T02:37:22.904Z,19.53
2019-05-17T02:40:03.212Z,18.43
2019-05-17T02:42:28.701Z,17.72
2019-05-17T02:45:03.141Z,17.15
2019-05-17T02:47:35.284Z,16.66
2019-05-17T02:50:08.611Z,18.45
2019-05-17T02:52:43.797Z,21.20
2019-05-17T02:55:16.955Z,20.85
2019-05-17T02:57:52.688Z,19.50
2019-05-17T03:00:24.373Z,18.42
2019-05-17T03:02:57.754Z,17.68
2019-05-17T03:05:33.443Z,17.13
2019-05-17T03:08:04.843Z,18.68
2019-05-17T03:10:37.384Z,21.37
2019-05-17T03:13:12.803Z,20.85
2019-05-17T03:15:44.902Z,19.49
2019-05-17T03:18:17.989Z,18.45
2019-05-17T03:20:52.563Z,17.73
2019-05-17T03:23:25.288Z,17.13
2019-05-17T03:25:57.972Z,18.95
2019-05-17T03:28:33.544Z,21.55
2019-05-17T03:31:08.483Z,20.79
2019-05-17T03:33:45.324Z,19.44
2019-05-17T03:36:16.906Z,18.41
2019-05-17T03:38:48.903Z,17.70
2019-05-17T03:41:28.489Z,17.14
2019-05-17T03:43:55.837Z,18.90
2019-05-17T03:46:28.516Z,21.61
2019-05-17T03:49:03.888Z,21.22
2019-05-17T03:51:35.410Z,19.86
2019-05-17T03:54:08.090Z,18.78
2019-05-17T03:56:42.825Z,18.07
2019-05-17T03:59:15.084Z,17.50
2019-05-17T04:01:47.868Z,17.02
2019-05-17T04:04:22.869Z,18.57
2019-05-17T04:06:54.451Z,21.34
2019-05-17T04:09:28.155Z,21.00
2019-05-17T04:12:02.797Z,19.65
2019-05-17T04:14:35.161Z,18.62
2019-05-17T04:17:07.778Z,17.90
2019-05-17T04:19:42.610Z,17.34
2019-05-17T04:22:14.616Z,18.77
2019-05-17T04:24:46.910Z,21.49
2019-05-17T04:27:22.785Z,21.18
2019-05-17T04:29:53.792Z,19.88
2019-05-17T04:32:26.034Z,18.84
2019-05-17T04:34:58.752Z,18.14
2019-05-17T04:37:33.591Z,17.59
2019-05-17T04:40:07.679Z,17.14
2019-05-17T04:42:43.519Z,18.95
2019-05-17T04:45:15.601Z,21.69
2019-05-17T04:47:49.402Z,21.34
2019-05-17T04:50:23.148Z,20.03
2019-05-17T04:52:56.117Z,19.06
2019-05-17T04:55:28.781Z,18.37
2019-05-17T04:58:03.897Z,17.86
2019-05-17T05:00:38.163Z,19.47
2019-05-17T05:06:19.482Z,21.41
2019-05-17T05:08:56.610Z,20.19
2019-05-17T05:11:51.576Z,19.39
2019-05-17T05:14:12.820Z,18.74
2019-05-17T05:16:44.996Z,18.25
2019-05-17T05:19:18.735Z,17.82
2019-05-17T05:21:57.728Z,17.49
2019-05-17T05:24:33.222Z,19.92
2019-05-17T05:27:18.582Z,22.17
2019-05-17T05:29:59.222Z,21.02
2019-05-17T05:32:39.051Z,19.89
2019-05-17T05:35:24.758Z,19.16
2019-05-17T05:38:07.708Z,18.56
2019-05-17T05:40:47.188Z,18.12
2019-05-17T05:43:34.441Z,20.01
2019-05-17T05:46:23.610Z,22.36
2019-05-17T05:49:01.870Z,21.35
2019-05-17T05:51:52.227Z,20.31
2019-05-17T05:54:41.758Z,19.56
2019-05-17T05:57:42.101Z,19.08
2019-05-17T06:07:03.895Z,17.97
2019-05-17T06:38:56.795Z,18.11
2019-05-17T08:49:35.804Z,18.11
2019-05-17T09:59:09.865Z,18.64
2019-05-17T10:01:33.744Z,18.84
2019-05-17T10:04:06.970Z,18.99
2019-05-17T10:06:40.158Z,19.12
2019-05-17T10:09:12.890Z,19.22
2019-05-17T10:11:45.554Z,19.32
2019-05-17T10:14:25.775Z,19.42
2019-05-17T10:17:00.299Z,19.49
2019-05-17T10:19:32.659Z,19.54
2019-05-17T10:22:05.379Z,19.62
2019-05-17T10:24:42.028Z,19.68
2019-05-17T10:27:14.574Z,19.69
2019-05-17T10:29:46.496Z,19.69
2019-05-17T10:32:20.480Z,19.65
2019-05-17T10:34:53.596Z,19.61
2019-05-17T10:37:26.265Z,19.60
2019-05-17T10:39:58.954Z,19.56
2019-05-17T10:42:31.635Z,19.46
2019-05-17T10:45:05.748Z,19.37
2019-05-17T10:47:39.695Z,19.27
2019-05-17T10:50:17.556Z,19.22
2019-05-17T10:52:50.560Z,19.18
2019-05-17T10:55:23.239Z,19.18
2019-05-17T10:57:56.002Z,19.25
2019-05-17T11:00:30.321Z,19.39
2019-05-17T11:03:03.620Z,19.58
2019-05-17T11:05:36.283Z,19.69
2019-05-17T11:08:10.640Z,19.77
2019-05-17T11:10:44.409Z,19.85
2019-05-17T11:13:17.205Z,19.88
2019-05-17T11:15:49.869Z,19.92
2019-05-17T11:18:22.547Z,19.89
2019-05-17T11:20:55.238Z,19.86
2019-05-17T11:23:27.535Z,19.77
2019-05-17T11:26:00.191Z,19.61
2019-05-17T11:28:32.522Z,19.53
2019-05-17T11:31:07.599Z,19.47
2019-05-17T11:33:40.801Z,19.36
2019-05-17T11:36:13.457Z,19.29
2019-05-17T11:38:46.237Z,19.22
2019-05-17T11:41:21.531Z,19.16
2019-05-17T11:43:57.027Z,19.16
2019-05-17T11:46:36.108Z,19.13
2019-05-17T11:49:08.346Z,19.12
2019-05-17T11:51:41.023Z,19.15
2019-05-17T11:54:13.359Z,19.15
2019-05-17T11:56:46.047Z,19.18
2019-05-17T11:59:18.734Z,19.22
2019-05-17T12:01:51.409Z,19.29
2019-05-17T12:04:24.059Z,19.29
2019-05-17T12:06:56.667Z,19.30
2019-05-17T12:09:37.239Z,19.30
2019-05-17T12:12:06.527Z,19.29
2019-05-17T12:14:39.211Z,19.25
2019-05-17T12:17:11.843Z,19.21
2019-05-17T12:19:44.560Z,19.18
2019-05-17T12:22:17.341Z,19.10
2019-05-17T12:24:56.483Z,19.03
2019-05-17T12:27:29.269Z,18.92
2019-05-17T12:30:02.427Z,18.83
2019-05-17T12:32:38.454Z,18.68
2019-05-17T12:35:11.252Z,18.56
2019-05-17T12:37:44.125Z,18.43
2019-05-17T12:47:08.697Z,18.00
2019-05-17T12:52:15.180Z,17.73
2019-05-17T12:54:49.505Z,17.61
2019-05-17T12:57:22.801Z,17.43
2019-05-17T12:59:55.486Z,19.56
2019-05-17T13:02:28.259Z,22.34
2019-05-17T13:05:00.934Z,22.18
2019-05-17T13:07:33.624Z,21.09
2019-05-17T13:10:07.824Z,20.23
2019-05-17T13:12:40.512Z,19.71
2019-05-17T13:15:13.591Z,19.37
2019-05-17T13:17:46.270Z,19.10
2019-05-17T13:20:19.675Z,18.92
2019-05-17T13:22:52.352Z,21.07
2019-05-17T13:25:25.338Z,23.47
2019-05-17T13:27:58.020Z,22.77
2019-05-17T13:30:32.438Z,21.99
2019-05-17T13:33:05.325Z,21.51
2019-05-17T13:35:38.009Z,21.21
2019-05-17T13:38:10.690Z,21.03
2019-05-17T13:40:43.365Z,20.93
2019-05-17T13:43:16.045Z,20.80
2019-05-17T13:45:48.277Z,20.76
2019-05-17T13:48:22.219Z,20.69
2019-05-17T13:50:55.095Z,20.62
2019-05-17T13:53:27.695Z,20.62
2019-05-17T13:56:00.359Z,20.67
2019-05-17T13:58:33.132Z,21.27
2019-05-17T14:01:05.915Z,23.60
2019-05-17T14:03:38.622Z,23.60
2019-05-17T14:06:12.306Z,23.58
2019-05-17T14:08:44.603Z,23.61
2019-05-17T14:11:17.245Z,23.65
2019-05-17T14:13:49.923Z,23.85
2019-05-17T14:16:22.615Z,24.16
2019-05-17T14:18:55.286Z,24.63
2019-05-17T14:21:27.959Z,24.99
2019-05-17T14:24:00.643Z,25.29
2019-05-17T14:26:33.677Z,25.62
2019-05-17T14:29:06.407Z,25.93
2019-05-17T14:31:39.104Z,26.38
2019-05-17T14:34:11.869Z,26.78
2019-05-17T14:36:44.469Z,27.08
2019-05-17T14:39:18.157Z,27.46
2019-05-17T14:41:50.830Z,27.91
2019-05-17T14:44:23.510Z,28.39
2019-05-17T14:46:56.197Z,28.77
2019-05-17T14:49:28.881Z,29.12
2019-05-17T14:52:01.548Z,29.43
2019-05-17T14:54:34.225Z,29.75
2019-05-17T14:57:06.929Z,30.05
2019-05-17T14:59:39.595Z,30.33
2019-05-17T15:02:12.251Z,30.57
2019-05-17T15:04:44.948Z,30.67
2019-05-17T15:07:17.219Z,30.71
2019-05-17T15:09:51.741Z,30.79
2019-05-17T15:12:28.471Z,30.90
2019-05-17T15:15:03.794Z,31.10
2019-05-17T15:17:41.380Z,31.19
2019-05-17T15:20:16.525Z,31.26
2019-05-17T15:22:50.523Z,31.38
2019-05-17T15:25:23.986Z,31.60
2019-05-17T15:27:57.927Z,31.80
2019-05-17T15:30:34.834Z,32.02
2019-05-17T15:33:10.207Z,32.24
2019-05-17T15:35:46.473Z,32.32
2019-05-17T15:38:19.866Z,32.44
2019-05-17T15:40:52.967Z,32.52
2019-05-17T15:43:25.955Z,32.69
2019-05-17T15:45:58.640Z,32.78
2019-05-17T15:48:31.320Z,32.86
2019-05-17T15:51:04.039Z,32.97
2019-05-17T15:53:36.670Z,33.09
2019-05-17T15:56:08.961Z,33.16
2019-05-17T15:58:41.204Z,33.24
2019-05-17T16:01:13.894Z,33.29
2019-05-17T16:03:46.572Z,33.31
2019-05-17T16:06:19.260Z,33.31
2019-05-17T16:08:51.940Z,33.37
2019-05-17T16:11:24.617Z,33.45
2019-05-17T16:13:57.293Z,33.51
2019-05-17T16:16:29.970Z,33.46
2019-05-17T16:19:02.223Z,33.46
2019-05-17T16:21:34.534Z,33.52
2019-05-17T16:24:07.284Z,33.46
2019-05-17T16:26:40.483Z,33.31
2019-05-17T16:29:13.162Z,33.20
2019-05-17T16:31:45.893Z,33.09
2019-05-17T16:34:18.557Z,33.03
2019-05-17T16:36:51.199Z,32.93
2019-05-17T16:39:23.891Z,32.83
2019-05-17T16:41:56.561Z,32.76
2019-05-17T16:44:29.243Z,32.59
2019-05-17T16:47:01.927Z,32.45
2019-05-17T16:49:34.599Z,32.32
2019-05-17T16:52:07.285Z,32.21
2019-05-17T16:54:39.959Z,32.13
2019-05-17T16:57:12.897Z,32.00
2019-05-17T16:59:45.516Z,31.80
2019-05-17T17:02:18.200Z,31.64
2019-05-17T17:04:51.290Z,31.48
2019-05-17T17:07:23.966Z,31.34
2019-05-17T17:09:56.645Z,31.12
2019-05-17T17:12:29.427Z,30.93
2019-05-17T17:15:02.036Z,30.74
2019-05-17T17:17:34.785Z,30.51
2019-05-17T17:20:08.562Z,30.29
2019-05-17T17:22:41.267Z,30.06
2019-05-17T17:25:14.162Z,29.70
2019-05-17T17:27:47.245Z,29.13
2019-05-17T17:30:20.073Z,28.46
2019-05-17T17:32:52.385Z,27.70
2019-05-17T17:35:25.092Z,27.00
2019-05-17T17:37:59.304Z,26.34
2019-05-17T17:40:31.988Z,25.69
2019-05-17T17:43:04.649Z,25.06
2019-05-17T17:45:37.416Z,24.51
2019-05-17T17:48:10.210Z,23.97
2019-05-17T17:50:44.871Z,23.49
2019-05-17T17:53:17.137Z,23.04
2019-05-17T17:55:49.797Z,22.63
2019-05-17T17:58:22.529Z,22.22
2019-05-17T18:00:55.143Z,21.83
2019-05-17T18:03:27.838Z,21.45
2019-05-17T18:06:00.505Z,21.10
2019-05-17T18:08:34.722Z,20.79
2019-05-17T18:11:07.611Z,20.48
2019-05-17T18:13:40.395Z,20.15
2019-05-17T18:16:13.077Z,19.81
2019-05-17T18:18:45.856Z,19.50
2019-05-17T18:21:18.669Z,19.21
2019-05-17T18:23:51.539Z,18.91
2019-05-17T21:07:07.476Z,20.03
2019-05-17T21:09:40.370Z,18.88
2019-05-17T21:12:13.039Z,18.08
2019-05-17T21:14:45.830Z,17.48
2019-05-17T21:17:18.504Z,17.00
2019-05-17T21:19:51.193Z,19.10
2019-05-17T21:22:23.867Z,21.68
2019-05-17T21:24:56.789Z,21.13
2019-05-17T21:27:29.430Z,19.74
2019-05-17T21:30:02.113Z,18.68
2019-05-17T21:32:35.527Z,17.94
2019-05-17T21:35:09.311Z,17.38
2019-05-17T21:37:41.984Z,16.88
2019-05-17T21:40:15.283Z,18.55
2019-05-17T21:42:47.963Z,21.27
2019-05-17T21:45:21.876Z,20.89
2019-05-17T21:47:54.549Z,19.51
2019-05-17T21:50:27.222Z,18.45
2019-05-17T21:52:59.789Z,17.69
2019-05-17T21:55:32.477Z,17.10
2019-05-17T21:58:05.052Z,16.61
2019-05-17T22:00:52.891Z,18.35
2019-05-17T22:03:25.568Z,21.27
2019-05-17T22:05:58.654Z,20.89
2019-05-17T22:08:31.237Z,19.44
2019-05-17T22:11:04.628Z,18.42
2019-05-17T22:13:37.311Z,17.66
2019-05-17T22:16:19.013Z,17.06
2019-05-17T22:18:44.199Z,16.56
2019-05-17T22:21:16.880Z,18.17
2019-05-17T22:23:49.569Z,20.87
2019-05-17T22:26:22.243Z,20.47
2019-05-17T22:28:54.922Z,19.09
2019-05-17T22:31:28.828Z,18.01
2019-05-17T22:34:01.415Z,17.24
2019-05-17T22:36:34.079Z,16.61
2019-05-17T22:39:08.504Z,16.09
2019-05-17T22:41:41.180Z,17.64
2019-05-17T22:44:14.074Z,20.40
2019-05-17T22:46:47.059Z,20.08
2019-05-17T22:49:19.936Z,18.67
2019-05-17T22:51:52.204Z,17.65
2019-05-17T22:54:24.887Z,16.88
2019-05-17T22:56:57.767Z,16.29
2019-05-17T22:59:30.455Z,17.84
2019-05-17T23:02:03.146Z,20.56
2019-05-17T23:04:35.358Z,20.21
2019-05-17T23:07:08.186Z,18.78
2019-05-17T23:09:41.167Z,17.77
2019-05-17T23:12:15.625Z,17.05
2019-05-17T23:14:48.365Z,18.59
2019-05-17T23:17:21.354Z,21.20
2019-05-17T23:19:54.242Z,20.62
2019-05-17T23:22:26.922Z,19.23
2019-05-17T23:24:59.708Z,18.15
2019-05-17T23:27:32.689Z,17.39
2019-05-17T23:30:07.726Z,17.03
2019-05-17T23:32:40.508Z,19.64
2019-05-17T23:35:13.284Z,19.96
2019-05-17T23:37:46.173Z,18.70
2019-05-17T23:40:19.505Z,17.76
2019-05-17T23:42:52.150Z,17.00
2019-05-17T23:45:25.125Z,18.45
2019-05-17T23:47:57.799Z,20.75
2019-05-17T23:50:31.616Z,19.68
2019-05-17T23:53:04.290Z,18.41
2019-05-17T23:55:36.976Z,17.53
2019-05-17T23:58:09.648Z,16.85
